Terminal Aerodrome Forecast
Issued by NWS

Home | Current Version | Previous Version | Text Only | Print | Product List | Glossary On
Versions: 1 2 3 4 5 6 7 8 9 10 11 12 13 14 15 16 17 18 19 20
613
FTUS42 KMLB 221343 AAA
TAFFPR
TAF AMD
KFPR 221343Z 2214/2312 01005KT P6SM FEW005 SCT250
     FM221700 03010KT P6SM SCT035 SCT250
     FM230600 04006KT P6SM VCSH SCT015 BKN030=

USA.gov is the U.S. government's official web portal to all federal, state and local government web resources and services.